sensor_id;sensor_type;location;lat;lon;timestamp;P1;durP1;ratioP1;P2;durP2;ratioP2
18217;SDS011;9234;49.344;11.120;2023-07-20T00:00:31;4.88;;;4.38;;
18217;SDS011;9234;49.344;11.120;2023-07-20T00:03:13;7.80;;;4.40;;
18217;SDS011;9234;49.344;11.120;2023-07-20T00:05:45;6.13;;;3.88;;
18217;SDS011;9234;49.344;11.120;2023-07-20T00:08:14;4.80;;;3.75;;
18217;SDS011;9234;49.344;11.120;2023-07-20T00:10:43;6.35;;;4.38;;
18217;SDS011;9234;49.344;11.120;2023-07-20T00:13:13;5.80;;;4.18;;
18217;SDS011;9234;49.344;11.120;2023-07-20T00:15:42;5.15;;;3.78;;
18217;SDS011;9234;49.344;11.120;2023-07-20T00:18:10;6.40;;;4.22;;
18217;SDS011;9234;49.344;11.120;2023-07-20T00:20:39;4.88;;;3.95;;
18217;SDS011;9234;49.344;11.120;2023-07-20T00:23:08;9.05;;;4.57;;
18217;SDS011;9234;49.344;11.120;2023-07-20T00:25:36;6.32;;;4.85;;
18217;SDS011;9234;49.344;11.120;2023-07-20T00:28:04;8.10;;;4.90;;
18217;SDS011;9234;49.344;11.120;2023-07-20T00:30:34;5.28;;;4.30;;
18217;SDS011;9234;49.344;11.120;2023-07-20T00:33:06;7.30;;;4.25;;
18217;SDS011;9234;49.344;11.120;2023-07-20T00:35:38;8.15;;;4.03;;
18217;SDS011;9234;49.344;11.120;2023-07-20T00:38:07;6.88;;;4.53;;
18217;SDS011;9234;49.344;11.120;2023-07-20T00:40:35;6.50;;;3.67;;
18217;SDS011;9234;49.344;11.120;2023-07-20T00:43:04;5.93;;;4.07;;
18217;SDS011;9234;49.344;11.120;2023-07-20T00:45:34;7.68;;;4.38;;
18217;SDS011;9234;49.344;11.120;2023-07-20T00:48:06;8.23;;;3.90;;
18217;SDS011;9234;49.344;11.120;2023-07-20T00:50:35;9.77;;;4.40;;
18217;SDS011;9234;49.344;11.120;2023-07-20T00:53:07;7.63;;;4.20;;
18217;SDS011;9234;49.344;11.120;2023-07-20T00:55:36;7.18;;;4.25;;
18217;SDS011;9234;49.344;11.120;2023-07-20T00:58:06;7.50;;;3.90;;
18217;SDS011;9234;49.344;11.120;2023-07-20T01:00:37;7.25;;;3.78;;
18217;SDS011;9234;49.344;11.120;2023-07-20T01:03:05;8.30;;;4.53;;
18217;SDS011;9234;49.344;11.120;2023-07-20T01:05:36;8.80;;;4.38;;
18217;SDS011;9234;49.344;11.120;2023-07-20T01:08:20;6.38;;;4.03;;
18217;SDS011;9234;49.344;11.120;2023-07-20T01:11:02;7.60;;;4.20;;
18217;SDS011;9234;49.344;11.120;2023-07-20T01:13:40;5.68;;;4.38;;
18217;SDS011;9234;49.344;11.120;2023-07-20T01:16:11;7.35;;;5.00;;
18217;SDS011;9234;49.344;11.120;2023-07-20T01:18:40;6.20;;;4.43;;
18217;SDS011;9234;49.344;11.120;2023-07-20T01:21:09;8.48;;;5.38;;
18217;SDS011;9234;49.344;11.120;2023-07-20T01:27:11;8.05;;;4.50;;
18217;SDS011;9234;49.344;11.120;2023-07-20T01:30:45;10.82;;;4.15;;
18217;SDS011;9234;49.344;11.120;2023-07-20T01:33:24;9.73;;;4.53;;
18217;SDS011;9234;49.344;11.120;2023-07-20T01:35:54;7.20;;;4.47;;
18217;SDS011;9234;49.344;11.120;2023-07-20T01:38:27;6.50;;;3.92;;
18217;SDS011;9234;49.344;11.120;2023-07-20T01:40:57;8.13;;;5.32;;
18217;SDS011;9234;49.344;11.120;2023-07-20T01:43:26;5.15;;;4.22;;
18217;SDS011;9234;49.344;11.120;2023-07-20T01:45:54;7.40;;;4.28;;
18217;SDS011;9234;49.344;11.120;2023-07-20T01:48:24;7.72;;;3.95;;
18217;SDS011;9234;49.344;11.120;2023-07-20T01:50:53;8.20;;;4.30;;
18217;SDS011;9234;49.344;11.120;2023-07-20T01:53:22;6.50;;;4.40;;
18217;SDS011;9234;49.344;11.120;2023-07-20T01:55:52;8.85;;;4.65;;
18217;SDS011;9234;49.344;11.120;2023-07-20T01:58:21;8.65;;;5.18;;
18217;SDS011;9234;49.344;11.120;2023-07-20T02:00:51;6.00;;;4.78;;
18217;SDS011;9234;49.344;11.120;2023-07-20T02:03:19;5.90;;;4.88;;
18217;SDS011;9234;49.344;11.120;2023-07-20T02:05:51;6.20;;;4.53;;
18217;SDS011;9234;49.344;11.120;2023-07-20T02:08:20;7.15;;;4.68;;
18217;SDS011;9234;49.344;11.120;2023-07-20T02:10:48;6.03;;;4.80;;
18217;SDS011;9234;49.344;11.120;2023-07-20T02:13:17;6.75;;;4.28;;
18217;SDS011;9234;49.344;11.120;2023-07-20T02:15:45;6.20;;;4.38;;
18217;SDS011;9234;49.344;11.120;2023-07-20T02:18:15;6.55;;;4.55;;
18217;SDS011;9234;49.344;11.120;2023-07-20T02:20:44;5.60;;;4.30;;
18217;SDS011;9234;49.344;11.120;2023-07-20T02:23:14;7.25;;;4.30;;
18217;SDS011;9234;49.344;11.120;2023-07-20T02:25:42;4.72;;;3.90;;
18217;SDS011;9234;49.344;11.120;2023-07-20T02:28:12;4.03;;;3.63;;
18217;SDS011;9234;49.344;11.120;2023-07-20T02:30:42;7.65;;;4.63;;
18217;SDS011;9234;49.344;11.120;2023-07-20T02:33:10;6.50;;;4.25;;
18217;SDS011;9234;49.344;11.120;2023-07-20T02:35:40;4.95;;;4.40;;
18217;SDS011;9234;49.344;11.120;2023-07-20T02:38:08;4.55;;;4.15;;
18217;SDS011;9234;49.344;11.120;2023-07-20T02:40:38;5.93;;;4.28;;
18217;SDS011;9234;49.344;11.120;2023-07-20T02:43:07;5.03;;;3.75;;
18217;SDS011;9234;49.344;11.120;2023-07-20T02:45:39;5.40;;;3.90;;
18217;SDS011;9234;49.344;11.120;2023-07-20T02:48:09;6.78;;;4.40;;
18217;SDS011;9234;49.344;11.120;2023-07-20T02:50:39;5.25;;;4.18;;
18217;SDS011;9234;49.344;11.120;2023-07-20T02:53:09;8.50;;;3.80;;
18217;SDS011;9234;49.344;11.120;2023-07-20T02:55:38;4.32;;;3.83;;
18217;SDS011;9234;49.344;11.120;2023-07-20T02:58:07;4.82;;;4.15;;
18217;SDS011;9234;49.344;11.120;2023-07-20T03:00:36;4.38;;;3.80;;
18217;SDS011;9234;49.344;11.120;2023-07-20T03:03:04;8.35;;;4.38;;
18217;SDS011;9234;49.344;11.120;2023-07-20T03:05:36;7.65;;;4.32;;
18217;SDS011;9234;49.344;11.120;2023-07-20T03:08:07;7.28;;;4.60;;
18217;SDS011;9234;49.344;11.120;2023-07-20T03:10:39;4.32;;;3.95;;
18217;SDS011;9234;49.344;11.120;2023-07-20T03:13:08;4.85;;;4.22;;
18217;SDS011;9234;49.344;11.120;2023-07-20T03:15:37;6.93;;;4.40;;
18217;SDS011;9234;49.344;11.120;2023-07-20T03:18:06;5.30;;;4.50;;
18217;SDS011;9234;49.344;11.120;2023-07-20T03:20:35;12.05;;;4.38;;
18217;SDS011;9234;49.344;11.120;2023-07-20T03:23:04;7.85;;;5.03;;
18217;SDS011;9234;49.344;11.120;2023-07-20T03:25:32;8.63;;;5.18;;
18217;SDS011;9234;49.344;11.120;2023-07-20T03:28:05;9.10;;;5.38;;
18217;SDS011;9234;49.344;11.120;2023-07-20T03:30:34;4.97;;;4.38;;
18217;SDS011;9234;49.344;11.120;2023-07-20T03:33:03;7.90;;;5.00;;
18217;SDS011;9234;49.344;11.120;2023-07-20T03:35:31;6.82;;;4.65;;
18217;SDS011;9234;49.344;11.120;2023-07-20T03:38:00;5.68;;;4.68;;
18217;SDS011;9234;49.344;11.120;2023-07-20T03:40:28;5.13;;;4.63;;
18217;SDS011;9234;49.344;11.120;2023-07-20T03:42:56;6.05;;;3.72;;
18217;SDS011;9234;49.344;11.120;2023-07-20T03:45:26;6.10;;;4.82;;
18217;SDS011;9234;49.344;11.120;2023-07-20T03:47:55;5.70;;;4.65;;
18217;SDS011;9234;49.344;11.120;2023-07-20T03:50:23;6.78;;;4.88;;
18217;SDS011;9234;49.344;11.120;2023-07-20T03:52:52;6.80;;;4.70;;
18217;SDS011;9234;49.344;11.120;2023-07-20T03:55:20;5.43;;;4.07;;
18217;SDS011;9234;49.344;11.120;2023-07-20T03:57:49;8.13;;;3.97;;
18217;SDS011;9234;49.344;11.120;2023-07-20T04:00:17;7.63;;;4.28;;
18217;SDS011;9234;49.344;11.120;2023-07-20T04:02:50;5.80;;;4.35;;
18217;SDS011;9234;49.344;11.120;2023-07-20T04:05:18;8.65;;;4.30;;
18217;SDS011;9234;49.344;11.120;2023-07-20T04:07:47;6.40;;;4.63;;
18217;SDS011;9234;49.344;11.120;2023-07-20T04:10:15;8.43;;;4.47;;
18217;SDS011;9234;49.344;11.120;2023-07-20T04:12:44;5.03;;;4.32;;
18217;SDS011;9234;49.344;11.120;2023-07-20T04:15:13;6.68;;;4.30;;
18217;SDS011;9234;49.344;11.120;2023-07-20T04:17:42;6.25;;;4.05;;
18217;SDS011;9234;49.344;11.120;2023-07-20T04:20:13;4.85;;;4.28;;
18217;SDS011;9234;49.344;11.120;2023-07-20T04:22:44;6.80;;;4.57;;
18217;SDS011;9234;49.344;11.120;2023-07-20T04:25:14;7.03;;;4.43;;
18217;SDS011;9234;49.344;11.120;2023-07-20T04:27:43;14.95;;;5.22;;
18217;SDS011;9234;49.344;11.120;2023-07-20T04:30:11;9.38;;;4.88;;
18217;SDS011;9234;49.344;11.120;2023-07-20T04:32:42;7.22;;;4.85;;
18217;SDS011;9234;49.344;11.120;2023-07-20T04:35:17;8.75;;;4.75;;
18217;SDS011;9234;49.344;11.120;2023-07-20T04:38:08;7.22;;;4.60;;
18217;SDS011;9234;49.344;11.120;2023-07-20T04:40:36;8.30;;;4.30;;
18217;SDS011;9234;49.344;11.120;2023-07-20T04:43:04;9.15;;;4.07;;
18217;SDS011;9234;49.344;11.120;2023-07-20T04:45:33;7.78;;;4.15;;
18217;SDS011;9234;49.344;11.120;2023-07-20T04:48:02;4.78;;;4.20;;
18217;SDS011;9234;49.344;11.120;2023-07-20T04:50:34;9.63;;;4.60;;
18217;SDS011;9234;49.344;11.120;2023-07-20T04:53:02;6.70;;;4.13;;
18217;SDS011;9234;49.344;11.120;2023-07-20T04:55:31;8.68;;;4.72;;
18217;SDS011;9234;49.344;11.120;2023-07-20T04:58:01;7.45;;;4.15;;
18217;SDS011;9234;49.344;11.120;2023-07-20T05:00:31;8.75;;;4.53;;
18217;SDS011;9234;49.344;11.120;2023-07-20T05:03:01;5.53;;;4.35;;
18217;SDS011;9234;49.344;11.120;2023-07-20T05:05:33;6.10;;;4.10;;
18217;SDS011;9234;49.344;11.120;2023-07-20T05:08:02;6.05;;;4.00;;
18217;SDS011;9234;49.344;11.120;2023-07-20T05:10:32;5.38;;;4.10;;
18217;SDS011;9234;49.344;11.120;2023-07-20T05:13:00;5.38;;;3.90;;
18217;SDS011;9234;49.344;11.120;2023-07-20T05:15:29;4.10;;;3.28;;
18217;SDS011;9234;49.344;11.120;2023-07-20T05:17:59;9.45;;;3.92;;
18217;SDS011;9234;49.344;11.120;2023-07-20T05:20:28;6.32;;;4.38;;
18217;SDS011;9234;49.344;11.120;2023-07-20T05:22:59;7.90;;;3.83;;
18217;SDS011;9234;49.344;11.120;2023-07-20T05:25:28;7.80;;;4.07;;
18217;SDS011;9234;49.344;11.120;2023-07-20T05:27:57;4.78;;;3.85;;
18217;SDS011;9234;49.344;11.120;2023-07-20T05:30:25;5.82;;;4.25;;
18217;SDS011;9234;49.344;11.120;2023-07-20T05:32:55;7.40;;;4.35;;
18217;SDS011;9234;49.344;11.120;2023-07-20T05:35:23;6.22;;;3.78;;
18217;SDS011;9234;49.344;11.120;2023-07-20T05:37:53;8.68;;;4.00;;
18217;SDS011;9234;49.344;11.120;2023-07-20T05:40:22;7.95;;;4.43;;
18217;SDS011;9234;49.344;11.120;2023-07-20T05:42:51;6.75;;;3.80;;
18217;SDS011;9234;49.344;11.120;2023-07-20T05:45:20;7.55;;;3.65;;
18217;SDS011;9234;49.344;11.120;2023-07-20T05:47:48;9.02;;;3.90;;
18217;SDS011;9234;49.344;11.120;2023-07-20T05:50:16;4.78;;;3.08;;
18217;SDS011;9234;49.344;11.120;2023-07-20T05:52:45;7.88;;;3.22;;
18217;SDS011;9234;49.344;11.120;2023-07-20T05:55:14;6.25;;;3.83;;
18217;SDS011;9234;49.344;11.120;2023-07-20T05:57:44;8.30;;;4.07;;
18217;SDS011;9234;49.344;11.120;2023-07-20T06:00:14;7.55;;;4.00;;
18217;SDS011;9234;49.344;11.120;2023-07-20T06:02:45;4.53;;;3.38;;
18217;SDS011;9234;49.344;11.120;2023-07-20T06:05:14;4.95;;;3.03;;
18217;SDS011;9234;49.344;11.120;2023-07-20T06:07:43;7.05;;;3.72;;
18217;SDS011;9234;49.344;11.120;2023-07-20T06:10:11;8.07;;;3.58;;
18217;SDS011;9234;49.344;11.120;2023-07-20T06:12:39;4.75;;;3.70;;
18217;SDS011;9234;49.344;11.120;2023-07-20T06:15:23;4.72;;;3.45;;
18217;SDS011;9234;49.344;11.120;2023-07-20T06:17:53;6.65;;;3.97;;
18217;SDS011;9234;49.344;11.120;2023-07-20T06:20:24;5.97;;;3.28;;
18217;SDS011;9234;49.344;11.120;2023-07-20T06:22:53;4.63;;;3.65;;
18217;SDS011;9234;49.344;11.120;2023-07-20T06:25:21;4.65;;;3.17;;
18217;SDS011;9234;49.344;11.120;2023-07-20T06:27:49;4.90;;;3.58;;
18217;SDS011;9234;49.344;11.120;2023-07-20T06:30:20;9.50;;;4.10;;
18217;SDS011;9234;49.344;11.120;2023-07-20T06:32:50;5.07;;;4.00;;
18217;SDS011;9234;49.344;11.120;2023-07-20T06:35:19;9.80;;;3.90;;
18217;SDS011;9234;49.344;11.120;2023-07-20T06:37:47;6.65;;;3.53;;
18217;SDS011;9234;49.344;11.120;2023-07-20T06:40:15;6.35;;;3.47;;
18217;SDS011;9234;49.344;11.120;2023-07-20T06:42:47;4.07;;;3.10;;
18217;SDS011;9234;49.344;11.120;2023-07-20T06:45:19;6.07;;;2.90;;
18217;SDS011;9234;49.344;11.120;2023-07-20T06:47:47;5.70;;;3.10;;
18217;SDS011;9234;49.344;11.120;2023-07-20T06:50:16;3.15;;;2.50;;
18217;SDS011;9234;49.344;11.120;2023-07-20T06:52:44;7.28;;;3.72;;
18217;SDS011;9234;49.344;11.120;2023-07-20T06:55:14;3.22;;;2.80;;
18217;SDS011;9234;49.344;11.120;2023-07-20T06:57:49;3.83;;;2.72;;
18217;SDS011;9234;49.344;11.120;2023-07-20T07:00:19;4.75;;;3.03;;
18217;SDS011;9234;49.344;11.120;2023-07-20T07:02:48;4.00;;;3.22;;
18217;SDS011;9234;49.344;11.120;2023-07-20T07:05:16;5.28;;;3.30;;
18217;SDS011;9234;49.344;11.120;2023-07-20T07:07:47;5.28;;;3.13;;
18217;SDS011;9234;49.344;11.120;2023-07-20T07:10:15;5.88;;;3.30;;
18217;SDS011;9234;49.344;11.120;2023-07-20T07:12:44;3.65;;;2.60;;
18217;SDS011;9234;49.344;11.120;2023-07-20T07:15:12;6.00;;;2.63;;
18217;SDS011;9234;49.344;11.120;2023-07-20T07:17:42;6.07;;;2.70;;
18217;SDS011;9234;49.344;11.120;2023-07-20T07:20:10;6.05;;;2.42;;
18217;SDS011;9234;49.344;11.120;2023-07-20T07:22:46;6.57;;;2.53;;
18217;SDS011;9234;49.344;11.120;2023-07-20T07:25:18;4.65;;;2.70;;
18217;SDS011;9234;49.344;11.120;2023-07-20T07:27:49;5.30;;;3.08;;
18217;SDS011;9234;49.344;11.120;2023-07-20T07:30:19;3.97;;;2.50;;
18217;SDS011;9234;49.344;11.120;2023-07-20T07:32:49;4.72;;;2.30;;
18217;SDS011;9234;49.344;11.120;2023-07-20T07:35:17;5.95;;;2.35;;
18217;SDS011;9234;49.344;11.120;2023-07-20T07:37:45;5.03;;;3.08;;
18217;SDS011;9234;49.344;11.120;2023-07-20T07:40:16;3.38;;;2.40;;
18217;SDS011;9234;49.344;11.120;2023-07-20T07:42:45;5.55;;;2.78;;
18217;SDS011;9234;49.344;11.120;2023-07-20T07:45:14;5.10;;;2.53;;
18217;SDS011;9234;49.344;11.120;2023-07-20T07:47:43;3.50;;;2.08;;
18217;SDS011;9234;49.344;11.120;2023-07-20T07:50:12;8.07;;;2.50;;
18217;SDS011;9234;49.344;11.120;2023-07-20T07:52:41;3.30;;;2.10;;
18217;SDS011;9234;49.344;11.120;2023-07-20T07:55:09;4.00;;;1.95;;
18217;SDS011;9234;49.344;11.120;2023-07-20T07:57:37;3.97;;;2.30;;
18217;SDS011;9234;49.344;11.120;2023-07-20T08:00:06;4.82;;;2.15;;
18217;SDS011;9234;49.344;11.120;2023-07-20T08:02:38;5.93;;;2.28;;
18217;SDS011;9234;49.344;11.120;2023-07-20T08:05:07;4.57;;;2.10;;
18217;SDS011;9234;49.344;11.120;2023-07-20T08:07:37;3.13;;;2.08;;
18217;SDS011;9234;49.344;11.120;2023-07-20T08:10:06;4.55;;;2.60;;
18217;SDS011;9234;49.344;11.120;2023-07-20T08:12:35;3.72;;;2.33;;
18217;SDS011;9234;49.344;11.120;2023-07-20T08:15:04;2.53;;;1.92;;
18217;SDS011;9234;49.344;11.120;2023-07-20T08:17:33;3.97;;;2.05;;
18217;SDS011;9234;49.344;11.120;2023-07-20T08:20:02;6.63;;;2.95;;
18217;SDS011;9234;49.344;11.120;2023-07-20T08:22:32;3.78;;;2.55;;
18217;SDS011;9234;49.344;11.120;2023-07-20T08:25:02;6.05;;;2.10;;
18217;SDS011;9234;49.344;11.120;2023-07-20T08:27:31;5.28;;;2.08;;
18217;SDS011;9234;49.344;11.120;2023-07-20T08:29:59;4.03;;;2.40;;
18217;SDS011;9234;49.344;11.120;2023-07-20T08:32:27;3.80;;;2.63;;
18217;SDS011;9234;49.344;11.120;2023-07-20T08:34:56;4.75;;;2.53;;
18217;SDS011;9234;49.344;11.120;2023-07-20T08:37:24;3.50;;;1.90;;
18217;SDS011;9234;49.344;11.120;2023-07-20T08:39:53;5.05;;;2.33;;
18217;SDS011;9234;49.344;11.120;2023-07-20T08:42:22;4.22;;;1.95;;
18217;SDS011;9234;49.344;11.120;2023-07-20T08:44:51;3.65;;;1.92;;
18217;SDS011;9234;49.344;11.120;2023-07-20T08:47:22;2.00;;;1.50;;
18217;SDS011;9234;49.344;11.120;2023-07-20T08:49:53;3.90;;;2.05;;
18217;SDS011;9234;49.344;11.120;2023-07-20T08:52:23;4.50;;;2.22;;
18217;SDS011;9234;49.344;11.120;2023-07-20T08:54:52;3.03;;;1.88;;
18217;SDS011;9234;49.344;11.120;2023-07-20T08:57:20;4.22;;;2.10;;
18217;SDS011;9234;49.344;11.120;2023-07-20T08:59:50;2.78;;;1.80;;
18217;SDS011;9234;49.344;11.120;2023-07-20T09:02:21;3.88;;;1.70;;
18217;SDS011;9234;49.344;11.120;2023-07-20T09:04:54;3.25;;;1.80;;
18217;SDS011;9234;49.344;11.120;2023-07-20T09:07:23;2.70;;;1.90;;
18217;SDS011;9234;49.344;11.120;2023-07-20T09:09:52;2.40;;;1.50;;
18217;SDS011;9234;49.344;11.120;2023-07-20T09:12:25;3.08;;;1.67;;
18217;SDS011;9234;49.344;11.120;2023-07-20T09:14:56;2.40;;;2.03;;
18217;SDS011;9234;49.344;11.120;2023-07-20T09:17:25;4.35;;;1.75;;
18217;SDS011;9234;49.344;11.120;2023-07-20T09:19:55;4.72;;;1.73;;
18217;SDS011;9234;49.344;11.120;2023-07-20T09:22:29;3.15;;;1.50;;
18217;SDS011;9234;49.344;11.120;2023-07-20T09:24:58;2.88;;;1.77;;
18217;SDS011;9234;49.344;11.120;2023-07-20T09:27:32;3.70;;;1.45;;
18217;SDS011;9234;49.344;11.120;2023-07-20T09:30:04;3.40;;;1.60;;
18217;SDS011;9234;49.344;11.120;2023-07-20T09:32:38;3.08;;;1.60;;
18217;SDS011;9234;49.344;11.120;2023-07-20T09:35:14;5.75;;;1.90;;
18217;SDS011;9234;49.344;11.120;2023-07-20T09:37:46;2.03;;;1.42;;
18217;SDS011;9234;49.344;11.120;2023-07-20T09:40:38;3.60;;;1.45;;
18217;SDS011;9234;49.344;11.120;2023-07-20T09:43:11;2.83;;;1.73;;
18217;SDS011;9234;49.344;11.120;2023-07-20T09:45:43;4.65;;;1.50;;
18217;SDS011;9234;49.344;11.120;2023-07-20T09:48:14;5.25;;;1.65;;
18217;SDS011;9234;49.344;11.120;2023-07-20T09:50:48;3.00;;;1.88;;
18217;SDS011;9234;49.344;11.120;2023-07-20T09:53:18;1.75;;;1.20;;
18217;SDS011;9234;49.344;11.120;2023-07-20T09:55:47;1.85;;;1.65;;
18217;SDS011;9234;49.344;11.120;2023-07-20T09:58:17;3.28;;;1.77;;
18217;SDS011;9234;49.344;11.120;2023-07-20T10:00:46;4.03;;;2.22;;
18217;SDS011;9234;49.344;11.120;2023-07-20T10:03:20;3.10;;;1.48;;
18217;SDS011;9234;49.344;11.120;2023-07-20T10:05:54;3.08;;;1.45;;
18217;SDS011;9234;49.344;11.120;2023-07-20T10:08:26;3.85;;;1.90;;
18217;SDS011;9234;49.344;11.120;2023-07-20T10:11:00;2.25;;;1.38;;
18217;SDS011;9234;49.344;11.120;2023-07-20T10:13:32;1.85;;;1.10;;
18217;SDS011;9234;49.344;11.120;2023-07-20T10:16:07;2.65;;;1.30;;
18217;SDS011;9234;49.344;11.120;2023-07-20T10:18:41;3.30;;;1.98;;
18217;SDS011;9234;49.344;11.120;2023-07-20T10:21:26;2.40;;;1.83;;
18217;SDS011;9234;49.344;11.120;2023-07-20T10:24:00;2.33;;;1.48;;
18217;SDS011;9234;49.344;11.120;2023-07-20T10:26:30;3.03;;;1.42;;
18217;SDS011;9234;49.344;11.120;2023-07-20T10:29:00;2.08;;;1.55;;
18217;SDS011;9234;49.344;11.120;2023-07-20T10:31:30;1.65;;;1.30;;
18217;SDS011;9234;49.344;11.120;2023-07-20T10:34:01;4.57;;;1.25;;
18217;SDS011;9234;49.344;11.120;2023-07-20T10:36:30;1.80;;;1.30;;
18217;SDS011;9234;49.344;11.120;2023-07-20T10:38:58;1.30;;;1.02;;
18217;SDS011;9234;49.344;11.120;2023-07-20T10:41:27;2.65;;;1.42;;
18217;SDS011;9234;49.344;11.120;2023-07-20T10:43:57;4.47;;;1.30;;
18217;SDS011;9234;49.344;11.120;2023-07-20T10:46:34;3.45;;;1.55;;
18217;SDS011;9234;49.344;11.120;2023-07-20T10:49:12;1.30;;;1.10;;
18217;SDS011;9234;49.344;11.120;2023-07-20T10:51:43;2.10;;;1.60;;
18217;SDS011;9234;49.344;11.120;2023-07-20T10:57:22;4.20;;;1.45;;
18217;SDS011;9234;49.344;11.120;2023-07-20T11:00:10;2.60;;;1.10;;
18217;SDS011;9234;49.344;11.120;2023-07-20T11:02:44;1.70;;;1.25;;
18217;SDS011;9234;49.344;11.120;2023-07-20T11:05:32;4.43;;;1.45;;
18217;SDS011;9234;49.344;11.120;2023-07-20T11:08:04;2.33;;;1.10;;
18217;SDS011;9234;49.344;11.120;2023-07-20T11:10:36;1.90;;;1.30;;
18217;SDS011;9234;49.344;11.120;2023-07-20T11:13:18;1.73;;;1.10;;
18217;SDS011;9234;49.344;11.120;2023-07-20T11:16:02;1.70;;;0.68;;
18217;SDS011;9234;49.344;11.120;2023-07-20T11:18:33;2.75;;;1.13;;
18217;SDS011;9234;49.344;11.120;2023-07-20T11:21:07;2.03;;;1.10;;
18217;SDS011;9234;49.344;11.120;2023-07-20T11:23:38;1.50;;;1.10;;
18217;SDS011;9234;49.344;11.120;2023-07-20T11:26:07;4.70;;;1.05;;
18217;SDS011;9234;49.344;11.120;2023-07-20T11:28:36;1.20;;;1.00;;
18217;SDS011;9234;49.344;11.120;2023-07-20T11:31:05;1.48;;;0.85;;
18217;SDS011;9234;49.344;11.120;2023-07-20T11:33:34;2.75;;;1.10;;
18217;SDS011;9234;49.344;11.120;2023-07-20T11:36:03;1.48;;;0.95;;
18217;SDS011;9234;49.344;11.120;2023-07-20T11:38:53;1.40;;;0.90;;
18217;SDS011;9234;49.344;11.120;2023-07-20T11:41:21;1.15;;;1.00;;
18217;SDS011;9234;49.344;11.120;2023-07-20T11:43:49;2.85;;;1.02;;
18217;SDS011;9234;49.344;11.120;2023-07-20T11:46:19;2.22;;;1.10;;
18217;SDS011;9234;49.344;11.120;2023-07-20T11:48:48;2.30;;;1.00;;
18217;SDS011;9234;49.344;11.120;2023-07-20T11:51:16;1.67;;;1.00;;
18217;SDS011;9234;49.344;11.120;2023-07-20T11:53:46;1.10;;;0.88;;
18217;SDS011;9234;49.344;11.120;2023-07-20T11:56:15;1.20;;;0.95;;
18217;SDS011;9234;49.344;11.120;2023-07-20T11:58:43;1.25;;;0.80;;
18217;SDS011;9234;49.344;11.120;2023-07-20T12:01:13;3.80;;;0.90;;
18217;SDS011;9234;49.344;11.120;2023-07-20T12:03:43;3.53;;;1.20;;
18217;SDS011;9234;49.344;11.120;2023-07-20T12:06:12;2.55;;;0.93;;
18217;SDS011;9234;49.344;11.120;2023-07-20T12:08:42;2.78;;;1.05;;
18217;SDS011;9234;49.344;11.120;2023-07-20T12:11:11;0.75;;;0.75;;
18217;SDS011;9234;49.344;11.120;2023-07-20T12:13:41;0.93;;;0.73;;
18217;SDS011;9234;49.344;11.120;2023-07-20T12:16:12;2.88;;;0.90;;
18217;SDS011;9234;49.344;11.120;2023-07-20T12:18:45;4.55;;;1.23;;
18217;SDS011;9234;49.344;11.120;2023-07-20T12:21:14;0.85;;;0.80;;
18217;SDS011;9234;49.344;11.120;2023-07-20T12:23:42;2.13;;;0.98;;
18217;SDS011;9234;49.344;11.120;2023-07-20T12:26:11;1.58;;;0.98;;
18217;SDS011;9234;49.344;11.120;2023-07-20T12:28:42;3.55;;;1.08;;
18217;SDS011;9234;49.344;11.120;2023-07-20T12:31:11;2.80;;;1.38;;
18217;SDS011;9234;49.344;11.120;2023-07-20T12:33:40;4.22;;;1.20;;
18217;SDS011;9234;49.344;11.120;2023-07-20T12:36:10;0.85;;;0.75;;
18217;SDS011;9234;49.344;11.120;2023-07-20T12:38:39;3.08;;;1.02;;
18217;SDS011;9234;49.344;11.120;2023-07-20T12:41:09;2.55;;;0.85;;
18217;SDS011;9234;49.344;11.120;2023-07-20T12:43:40;1.60;;;1.25;;
18217;SDS011;9234;49.344;11.120;2023-07-20T12:46:10;1.42;;;0.80;;
18217;SDS011;9234;49.344;11.120;2023-07-20T12:48:40;2.42;;;1.23;;
18217;SDS011;9234;49.344;11.120;2023-07-20T12:51:14;3.30;;;0.90;;
18217;SDS011;9234;49.344;11.120;2023-07-20T12:53:43;2.35;;;0.90;;
18217;SDS011;9234;49.344;11.120;2023-07-20T12:56:12;2.35;;;1.00;;
18217;SDS011;9234;49.344;11.120;2023-07-20T12:58:44;2.45;;;0.88;;
18217;SDS011;9234;49.344;11.120;2023-07-20T13:01:15;1.92;;;0.85;;
18217;SDS011;9234;49.344;11.120;2023-07-20T13:03:44;2.03;;;1.00;;
18217;SDS011;9234;49.344;11.120;2023-07-20T13:06:17;2.40;;;0.93;;
18217;SDS011;9234;49.344;11.120;2023-07-20T13:08:49;3.53;;;0.80;;
18217;SDS011;9234;49.344;11.120;2023-07-20T13:11:22;1.75;;;1.08;;
18217;SDS011;9234;49.344;11.120;2023-07-20T13:13:51;1.20;;;1.00;;
18217;SDS011;9234;49.344;11.120;2023-07-20T13:16:20;0.70;;;0.60;;
18217;SDS011;9234;49.344;11.120;2023-07-20T13:18:49;3.65;;;1.20;;
18217;SDS011;9234;49.344;11.120;2023-07-20T13:21:18;3.20;;;0.85;;
18217;SDS011;9234;49.344;11.120;2023-07-20T13:23:50;3.08;;;0.90;;
18217;SDS011;9234;49.344;11.120;2023-07-20T13:26:18;0.98;;;0.90;;
18217;SDS011;9234;49.344;11.120;2023-07-20T13:28:47;0.95;;;0.90;;
18217;SDS011;9234;49.344;11.120;2023-07-20T13:31:15;1.08;;;1.00;;
18217;SDS011;9234;49.344;11.120;2023-07-20T13:33:44;1.27;;;0.98;;
18217;SDS011;9234;49.344;11.120;2023-07-20T13:36:24;0.98;;;0.85;;
18217;SDS011;9234;49.344;11.120;2023-07-20T13:38:56;0.95;;;0.82;;
18217;SDS011;9234;49.344;11.120;2023-07-20T13:41:25;2.45;;;0.90;;
18217;SDS011;9234;49.344;11.120;2023-07-20T13:43:56;2.22;;;1.10;;
18217;SDS011;9234;49.344;11.120;2023-07-20T13:46:25;1.20;;;0.95;;
18217;SDS011;9234;49.344;11.120;2023-07-20T13:48:56;1.50;;;1.10;;
18217;SDS011;9234;49.344;11.120;2023-07-20T13:51:26;4.07;;;1.25;;
18217;SDS011;9234;49.344;11.120;2023-07-20T13:53:56;1.15;;;1.05;;
18217;SDS011;9234;49.344;11.120;2023-07-20T13:56:52;2.55;;;0.93;;
18217;SDS011;9234;49.344;11.120;2023-07-20T13:59:24;1.00;;;0.90;;
18217;SDS011;9234;49.344;11.120;2023-07-20T14:01:56;2.15;;;1.20;;
18217;SDS011;9234;49.344;11.120;2023-07-20T14:04:27;3.10;;;1.13;;
18217;SDS011;9234;49.344;11.120;2023-07-20T14:06:57;2.13;;;0.85;;
18217;SDS011;9234;49.344;11.120;2023-07-20T14:09:26;2.33;;;0.80;;
18217;SDS011;9234;49.344;11.120;2023-07-20T14:11:55;2.17;;;1.08;;
18217;SDS011;9234;49.344;11.120;2023-07-20T14:14:26;2.03;;;0.98;;
18217;SDS011;9234;49.344;11.120;2023-07-20T14:16:56;3.75;;;1.13;;
18217;SDS011;9234;49.344;11.120;2023-07-20T14:19:25;1.30;;;0.80;;
18217;SDS011;9234;49.344;11.120;2023-07-20T14:21:53;1.33;;;1.10;;
18217;SDS011;9234;49.344;11.120;2023-07-20T14:24:26;1.70;;;1.20;;
18217;SDS011;9234;49.344;11.120;2023-07-20T14:26:55;3.40;;;1.10;;
18217;SDS011;9234;49.344;11.120;2023-07-20T14:29:23;1.45;;;0.90;;
18217;SDS011;9234;49.344;11.120;2023-07-20T14:31:53;1.85;;;0.90;;
18217;SDS011;9234;49.344;11.120;2023-07-20T14:34:22;1.70;;;1.30;;
18217;SDS011;9234;49.344;11.120;2023-07-20T14:36:50;1.00;;;0.90;;
18217;SDS011;9234;49.344;11.120;2023-07-20T14:39:19;0.88;;;0.70;;
18217;SDS011;9234;49.344;11.120;2023-07-20T14:41:49;4.45;;;0.95;;
18217;SDS011;9234;49.344;11.120;2023-07-20T14:44:19;2.38;;;1.27;;
18217;SDS011;9234;49.344;11.120;2023-07-20T14:46:48;1.20;;;1.10;;
18217;SDS011;9234;49.344;11.120;2023-07-20T14:49:36;1.45;;;1.20;;
18217;SDS011;9234;49.344;11.120;2023-07-20T14:52:05;1.58;;;1.17;;
18217;SDS011;9234;49.344;11.120;2023-07-20T14:54:37;1.42;;;0.98;;
18217;SDS011;9234;49.344;11.120;2023-07-20T14:57:07;0.98;;;0.88;;
18217;SDS011;9234;49.344;11.120;2023-07-20T14:59:41;2.50;;;1.30;;
18217;SDS011;9234;49.344;11.120;2023-07-20T15:02:10;1.38;;;1.00;;
18217;SDS011;9234;49.344;11.120;2023-07-20T15:04:45;1.27;;;0.93;;
18217;SDS011;9234;49.344;11.120;2023-07-20T15:07:15;1.75;;;0.98;;
18217;SDS011;9234;49.344;11.120;2023-07-20T15:09:45;2.25;;;1.15;;
18217;SDS011;9234;49.344;11.120;2023-07-20T15:12:15;2.35;;;1.00;;
18217;SDS011;9234;49.344;11.120;2023-07-20T15:14:43;1.02;;;0.93;;